createdAt,value
2018-08-22T00:01:13.928Z,6.60
2018-08-22T00:03:43.280Z,6.83
2018-08-22T00:06:15.588Z,7.07
2018-08-22T00:08:45.920Z,7.53
2018-08-22T00:11:15.098Z,7.40
2018-08-22T00:13:44.706Z,7.47
2018-08-22T00:16:14.142Z,6.93
2018-08-22T00:18:43.410Z,7.53
2018-08-22T00:21:12.284Z,7.37
2018-08-22T00:23:42.350Z,7.63
2018-08-22T00:26:11.314Z,7.03
2018-08-22T00:28:40.415Z,7.53
2018-08-22T00:31:10.671Z,7.67
2018-08-22T00:33:43.378Z,7.13
2018-08-22T00:36:12.964Z,7.37
2018-08-22T00:38:42.563Z,7.43
2018-08-22T00:41:11.740Z,6.93
2018-08-22T00:43:41.365Z,8.03
2018-08-22T00:46:10.777Z,8.03
2018-08-22T00:48:39.692Z,7.53
2018-08-22T00:51:08.758Z,7.70
2018-08-22T00:53:37.698Z,8.07
2018-08-22T00:56:06.772Z,7.67
2018-08-22T00:58:36.233Z,9.13
2018-08-22T01:01:05.242Z,10.00
2018-08-22T01:03:34.185Z,11.00
2018-08-22T01:06:03.778Z,10.50
2018-08-22T01:08:32.941Z,9.80
2018-08-22T01:11:01.932Z,8.77
2018-08-22T01:13:31.174Z,9.30
2018-08-22T01:16:00.102Z,8.33
2018-08-22T01:18:28.999Z,8.83
2018-08-22T01:20:57.882Z,8.90
2018-08-22T01:23:26.873Z,9.13
2018-08-22T01:25:55.979Z,8.53
2018-08-22T01:28:25.336Z,10.20
2018-08-22T01:30:54.282Z,10.20
2018-08-22T01:33:23.371Z,10.30
2018-08-22T01:35:52.457Z,10.37
2018-08-22T01:38:21.382Z,11.10
2018-08-22T01:40:50.428Z,10.93
2018-08-22T01:43:19.702Z,11.53
2018-08-22T01:45:48.656Z,11.33
2018-08-22T01:48:17.823Z,12.27
2018-08-22T01:50:46.727Z,12.43
2018-08-22T01:53:15.620Z,12.70
2018-08-22T01:55:44.654Z,12.63
2018-08-22T01:58:14.034Z,12.50
2018-08-22T02:00:42.871Z,12.00
2018-08-22T02:03:11.910Z,11.97
2018-08-22T02:05:41.298Z,11.47
2018-08-22T02:08:10.299Z,12.23
2018-08-22T02:10:39.388Z,11.37
2018-08-22T02:13:08.785Z,12.83
2018-08-22T02:15:37.697Z,10.77
2018-08-22T02:18:06.662Z,11.10
2018-08-22T02:20:35.623Z,11.53
2018-08-22T02:23:04.629Z,10.23
2018-08-22T02:25:33.736Z,10.47
2018-08-22T02:28:03.057Z,10.53
2018-08-22T02:30:32.038Z,10.83
2018-08-22T02:33:00.950Z,10.70
2018-08-22T02:35:29.851Z,10.43
2018-08-22T02:37:58.702Z,9.57
2018-08-22T02:40:27.619Z,10.20
2018-08-22T02:42:56.542Z,9.33
2018-08-22T02:45:25.533Z,9.17
2018-08-22T02:47:54.383Z,10.27
2018-08-22T02:50:23.745Z,10.67
2018-08-22T02:52:52.686Z,9.53
2018-08-22T02:55:21.644Z,9.37
2018-08-22T02:57:51.245Z,9.90
2018-08-22T03:00:20.180Z,10.07
2018-08-22T03:02:49.292Z,10.37
2018-08-22T03:05:18.285Z,10.90
2018-08-22T03:07:47.237Z,10.00
2018-08-22T03:10:16.157Z,9.53
2018-08-22T03:12:45.378Z,9.73
2018-08-22T03:15:14.386Z,9.33
2018-08-22T03:17:43.383Z,9.30
2018-08-22T03:20:12.328Z,9.13
2018-08-22T03:22:41.411Z,9.80
2018-08-22T03:25:10.414Z,9.23
2018-08-22T03:27:39.931Z,9.40
2018-08-22T03:30:08.882Z,9.53
2018-08-22T03:32:37.733Z,9.17
2018-08-22T03:35:07.224Z,9.73
2018-08-22T03:37:36.060Z,10.40
2018-08-22T03:40:05.005Z,10.17
2018-08-22T03:42:33.969Z,9.87
2018-08-22T03:45:03.031Z,9.43
2018-08-22T03:47:32.085Z,10.97
2018-08-22T03:50:01.059Z,9.03
2018-08-22T03:52:30.003Z,9.60
2018-08-22T03:54:59.022Z,9.43
2018-08-22T03:57:28.133Z,9.17
2018-08-22T03:59:57.132Z,9.00
2018-08-22T04:02:26.033Z,10.00
2018-08-22T04:04:54.894Z,8.80
2018-08-22T04:07:23.857Z,9.03
2018-08-22T04:09:52.838Z,8.83
2018-08-22T04:12:22.158Z,9.03
2018-08-22T04:14:51.164Z,8.17
2018-08-22T04:17:20.259Z,8.43
2018-08-22T04:19:49.641Z,9.10
2018-08-22T04:22:18.511Z,8.63
2018-08-22T04:24:47.452Z,8.40
2018-08-22T04:27:16.940Z,8.70
2018-08-22T04:29:45.880Z,8.97
2018-08-22T04:32:14.862Z,9.03
2018-08-22T04:34:44.201Z,7.87
2018-08-22T04:37:13.184Z,8.33
2018-08-22T04:39:42.176Z,8.83
2018-08-22T04:42:11.900Z,8.90
2018-08-22T04:44:40.950Z,7.90
2018-08-22T04:47:09.961Z,8.90
2018-08-22T04:49:39.386Z,8.90
2018-08-22T04:52:08.276Z,8.70
2018-08-22T04:54:37.139Z,8.20
2018-08-22T04:57:06.473Z,8.40
2018-08-22T04:59:35.408Z,9.13
2018-08-22T05:02:04.431Z,8.30
2018-08-22T05:04:33.438Z,9.00
2018-08-22T05:07:02.459Z,9.37
2018-08-22T05:09:31.213Z,10.97
2018-08-22T05:12:00.252Z,10.43
2018-08-22T05:14:29.361Z,10.27
2018-08-22T05:16:58.473Z,10.45
2018-08-22T05:19:27.879Z,9.83
2018-08-22T05:21:56.780Z,9.80
2018-08-22T05:24:25.663Z,9.87
2018-08-22T05:26:55.114Z,9.20
2018-08-22T05:29:24.008Z,9.13
2018-08-22T05:31:52.804Z,9.03
2018-08-22T05:34:22.044Z,8.13
2018-08-22T05:36:50.925Z,8.03
2018-08-22T05:39:20.089Z,9.03
2018-08-22T05:41:49.400Z,9.33
2018-08-22T05:44:18.380Z,9.60
2018-08-22T05:46:47.328Z,9.10
2018-08-22T05:49:16.630Z,8.90
2018-08-22T05:51:45.613Z,8.67
2018-08-22T05:54:14.641Z,8.63
2018-08-22T05:56:43.926Z,9.67
2018-08-22T05:59:12.870Z,9.37
2018-08-22T06:01:41.732Z,9.43
2018-08-22T06:04:10.968Z,9.90
2018-08-22T06:06:39.985Z,9.73
2018-08-22T06:09:12.316Z,9.40
2018-08-22T06:11:42.237Z,8.20
2018-08-22T06:14:11.686Z,9.40
2018-08-22T06:16:40.665Z,8.50
2018-08-22T06:19:09.903Z,8.87
2018-08-22T06:21:38.882Z,9.40
2018-08-22T06:24:07.955Z,8.77
2018-08-22T06:26:37.125Z,8.73
2018-08-22T06:29:06.081Z,8.93
2018-08-22T06:31:34.936Z,8.43
2018-08-22T06:34:03.870Z,8.40
2018-08-22T06:36:32.804Z,8.07
2018-08-22T06:39:01.696Z,8.40
2018-08-22T06:41:30.626Z,7.85
2018-08-22T06:43:59.585Z,7.65
2018-08-22T06:46:28.530Z,7.80
2018-08-22T06:48:57.353Z,7.72
2018-08-22T06:51:26.664Z,7.95
2018-08-22T06:53:55.555Z,8.50
2018-08-22T06:56:24.473Z,8.23
2018-08-22T06:58:53.728Z,7.80
2018-08-22T07:01:22.569Z,7.58
2018-08-22T07:03:51.500Z,7.83
2018-08-22T07:06:20.369Z,7.40
2018-08-22T07:08:49.274Z,8.20
2018-08-22T07:11:18.137Z,7.28
2018-08-22T07:13:47.203Z,8.25
2018-08-22T07:16:16.095Z,7.67
2018-08-22T07:18:45.079Z,7.85
2018-08-22T07:21:14.340Z,7.55
2018-08-22T07:23:43.193Z,7.80
2018-08-22T07:26:12.245Z,7.40
2018-08-22T07:28:41.344Z,8.05
2018-08-22T07:37:55.162Z,9.43
2018-08-22T07:40:24.003Z,8.40
2018-08-22T07:42:53.169Z,8.10
2018-08-22T07:45:22.834Z,8.63
2018-08-22T07:47:51.889Z,7.95
2018-08-22T07:50:20.905Z,8.78
2018-08-22T07:53:05.931Z,8.25
2018-08-22T07:55:38.516Z,7.00
2018-08-22T07:58:07.882Z,7.67
2018-08-22T08:00:37.002Z,6.72
2018-08-22T08:03:06.093Z,7.53
2018-08-22T08:05:35.804Z,6.80
2018-08-22T08:08:04.933Z,7.53
2018-08-22T08:10:34.889Z,7.62
2018-08-22T08:13:09.515Z,7.60
2018-08-22T08:15:38.382Z,6.97
2018-08-22T08:18:07.304Z,7.20
2018-08-22T08:20:36.569Z,7.28
2018-08-22T08:23:05.640Z,6.72
2018-08-22T08:25:34.615Z,6.78
2018-08-22T08:28:03.441Z,7.15
2018-08-22T08:30:32.417Z,7.15
2018-08-22T08:33:01.388Z,7.47
2018-08-22T08:35:30.533Z,7.22
2018-08-22T08:37:59.500Z,7.90
2018-08-22T08:40:28.480Z,6.83
2018-08-22T08:42:57.410Z,7.20
2018-08-22T08:45:26.300Z,7.40
2018-08-22T08:47:55.263Z,7.40
2018-08-22T08:50:24.385Z,6.58
2018-08-22T08:52:53.461Z,6.62
2018-08-22T08:55:22.448Z,6.83
2018-08-22T08:57:51.819Z,6.40
2018-08-22T09:00:20.846Z,6.97
2018-08-22T09:02:49.629Z,6.42
2018-08-22T09:05:18.675Z,7.08
2018-08-22T09:07:47.777Z,5.85
2018-08-22T09:10:16.850Z,6.00
2018-08-22T09:12:46.081Z,6.53
2018-08-22T09:15:15.040Z,5.62
2018-08-22T09:17:44.113Z,6.37
2018-08-22T09:20:13.219Z,6.58
2018-08-22T09:22:42.163Z,6.17
2018-08-22T09:25:11.227Z,6.62
2018-08-22T09:27:40.720Z,6.92
2018-08-22T09:30:09.801Z,6.10
2018-08-22T09:32:38.935Z,6.58
2018-08-22T09:35:08.144Z,5.70
2018-08-22T09:37:37.020Z,6.40
2018-08-22T09:40:06.069Z,6.10
2018-08-22T09:42:35.594Z,6.15
2018-08-22T09:45:04.625Z,6.40
2018-08-22T09:47:33.522Z,6.55
2018-08-22T09:50:03.002Z,6.35
2018-08-22T09:52:31.925Z,6.33
2018-08-22T09:55:02.405Z,6.35
2018-08-22T09:57:31.993Z,8.45
2018-08-22T10:00:01.006Z,6.62
2018-08-22T10:09:17.332Z,6.28
2018-08-22T10:11:46.313Z,6.83
2018-08-22T10:14:15.432Z,7.08
2018-08-22T10:16:44.441Z,6.50
2018-08-22T10:19:13.448Z,7.62
2018-08-22T10:21:42.421Z,7.53
2018-08-22T10:24:11.696Z,5.90
2018-08-22T10:26:40.717Z,6.47
2018-08-22T10:29:09.660Z,6.17
2018-08-22T10:31:39.027Z,6.72
2018-08-22T10:34:07.814Z,6.15
2018-08-22T10:36:36.698Z,7.12
2018-08-22T10:39:08.428Z,6.47
2018-08-22T10:41:37.667Z,6.95
2018-08-22T10:44:07.060Z,5.87
2018-08-22T10:46:36.406Z,7.20
2018-08-22T10:49:05.359Z,6.12
2018-08-22T10:51:34.389Z,6.20
2018-08-22T10:54:03.380Z,6.70
2018-08-22T10:56:32.682Z,6.42
2018-08-22T10:59:01.706Z,6.30
2018-08-22T11:01:31.003Z,5.72
2018-08-22T11:03:59.970Z,7.10
2018-08-22T11:06:28.987Z,7.10
2018-08-22T11:08:58.485Z,6.65
2018-08-22T11:11:27.549Z,6.58
2018-08-22T11:13:56.486Z,5.85
2018-08-22T11:16:25.573Z,6.37
2018-08-22T11:18:54.652Z,7.35
2018-08-22T11:21:34.598Z,6.15
2018-08-22T11:24:14.323Z,6.28
2018-08-22T11:26:54.116Z,7.22
2018-08-22T11:29:34.086Z,6.87
2018-08-22T11:32:13.985Z,7.10
2018-08-22T11:34:47.918Z,6.00
2018-08-22T11:37:17.801Z,6.42
2018-08-22T11:39:48.216Z,6.17
2018-08-22T11:42:17.248Z,7.00
2018-08-22T11:44:46.556Z,6.00
2018-08-22T11:47:15.508Z,6.33
2018-08-22T11:49:44.574Z,6.97
2018-08-22T11:52:13.522Z,6.55
2018-08-22T11:54:42.568Z,7.15
2018-08-22T11:57:11.605Z,6.30
2018-08-22T11:59:40.613Z,6.95
2018-08-22T12:02:10.676Z,6.72
2018-08-22T12:04:39.645Z,6.08
2018-08-22T12:07:09.009Z,6.10
2018-08-22T12:09:37.813Z,5.75
2018-08-22T12:12:06.770Z,6.50
2018-08-22T12:14:35.817Z,6.62
2018-08-22T12:17:04.762Z,7.35
2018-08-22T12:19:33.640Z,8.13
2018-08-22T12:22:03.138Z,7.62
2018-08-22T12:24:32.094Z,8.20
2018-08-22T12:27:01.193Z,7.20
2018-08-22T12:29:30.253Z,7.62
2018-08-22T12:31:59.070Z,7.55
2018-08-22T12:34:28.095Z,8.93
2018-08-22T12:36:57.077Z,8.55
2018-08-22T12:39:26.954Z,8.03
2018-08-22T12:41:55.951Z,8.00
2018-08-22T12:44:25.667Z,7.75
2018-08-22T12:46:54.547Z,7.67
2018-08-22T12:49:23.537Z,8.45
2018-08-22T12:51:52.524Z,7.17
2018-08-22T12:54:21.583Z,7.12
2018-08-22T12:56:50.340Z,7.75
2018-08-22T12:59:19.232Z,8.03
2018-08-22T13:01:48.236Z,6.92
2018-08-22T13:04:17.244Z,7.22
2018-08-22T13:06:46.646Z,6.47
2018-08-22T13:09:15.588Z,7.70
2018-08-22T13:11:44.642Z,8.10
2018-08-22T13:14:13.529Z,8.23
2018-08-22T13:16:42.400Z,9.30
2018-08-22T13:19:11.291Z,7.72
2018-08-22T13:21:40.113Z,6.97
2018-08-22T13:24:09.013Z,7.10
2018-08-22T13:26:37.960Z,6.55
2018-08-22T13:29:07.066Z,7.08
2018-08-22T13:31:36.199Z,8.15
2018-08-22T13:34:05.188Z,7.90
2018-08-22T13:36:34.277Z,7.55
2018-08-22T13:39:08.694Z,8.13
2018-08-22T13:41:37.832Z,8.58
2018-08-22T13:44:06.753Z,7.50
2018-08-22T13:46:35.804Z,7.72
2018-08-22T13:49:05.064Z,8.60
2018-08-22T13:51:34.053Z,8.53
2018-08-22T13:54:03.092Z,7.45
2018-08-22T13:56:32.318Z,8.45
2018-08-22T13:59:01.297Z,6.85
2018-08-22T14:01:30.232Z,7.55
2018-08-22T14:03:59.284Z,7.33
2018-08-22T14:06:28.354Z,6.45
2018-08-22T14:08:57.302Z,6.12
2018-08-22T14:11:26.692Z,6.95
2018-08-22T14:13:55.539Z,6.90
2018-08-22T14:16:24.541Z,6.58
2018-08-22T14:18:54.453Z,6.78
2018-08-22T14:21:23.334Z,6.72
2018-08-22T14:23:52.227Z,6.83
2018-08-22T14:26:21.102Z,6.80
2018-08-22T14:28:49.966Z,6.47
2018-08-22T14:31:18.787Z,6.70
2018-08-22T14:33:47.802Z,6.58
2018-08-22T14:36:16.879Z,7.15
2018-08-22T14:38:45.911Z,7.40
2018-08-22T14:41:14.955Z,7.08
2018-08-22T14:43:43.948Z,7.90
2018-08-22T14:46:12.991Z,7.80
2018-08-22T14:48:42.244Z,7.47
2018-08-22T14:51:11.335Z,6.92
2018-08-22T14:53:40.385Z,7.35
2018-08-22T14:56:09.503Z,6.92
2018-08-22T14:58:38.446Z,7.10
2018-08-22T15:01:07.551Z,6.60
2018-08-22T15:03:36.485Z,6.15
2018-08-22T15:06:05.382Z,6.03
2018-08-22T15:08:34.465Z,6.53
2018-08-22T15:11:03.501Z,6.62
2018-08-22T15:13:32.320Z,7.60
2018-08-22T15:16:01.365Z,6.50
2018-08-22T15:18:30.475Z,7.08
2018-08-22T15:20:59.672Z,6.70
2018-08-22T15:23:28.533Z,7.58
2018-08-22T15:25:58.082Z,6.92
2018-08-22T15:28:27.198Z,6.03
2018-08-22T15:30:56.375Z,11.40
2018-08-22T15:33:26.154Z,7.22
2018-08-22T15:35:55.235Z,11.15
2018-08-22T15:38:24.281Z,10.15
2018-08-22T15:40:53.738Z,9.00
2018-08-22T15:43:22.805Z,6.58
2018-08-22T15:45:51.777Z,7.20
2018-08-22T15:48:21.113Z,5.65
2018-08-22T15:50:50.093Z,6.83
2018-08-22T15:53:20.246Z,7.05
2018-08-22T15:55:49.293Z,7.12
2018-08-22T15:58:18.317Z,6.67
2018-08-22T16:00:52.373Z,6.22
2018-08-22T16:03:22.170Z,6.83
2018-08-22T16:05:52.560Z,6.10
2018-08-22T16:08:22.982Z,7.17
2018-08-22T16:10:52.586Z,5.83
2018-08-22T16:13:26.591Z,6.83
2018-08-22T16:15:56.730Z,6.70
2018-08-22T16:18:25.493Z,7.25
2018-08-22T16:20:54.570Z,6.65
2018-08-22T16:23:27.480Z,6.17
2018-08-22T16:25:57.197Z,6.70
2018-08-22T16:28:26.821Z,6.10
2018-08-22T16:30:58.421Z,6.03
2018-08-22T16:33:27.437Z,7.92
2018-08-22T16:35:56.471Z,6.42
2018-08-22T16:38:25.904Z,6.65
2018-08-22T16:40:54.937Z,7.58
2018-08-22T16:43:39.427Z,6.60
2018-08-22T16:46:10.208Z,6.47
2018-08-22T16:48:40.305Z,6.05
2018-08-22T16:51:09.292Z,6.58
2018-08-22T16:53:38.243Z,6.30
2018-08-22T16:56:07.602Z,6.55
2018-08-22T16:58:36.725Z,6.20
2018-08-22T17:01:05.899Z,6.58
2018-08-22T17:03:35.315Z,6.50
2018-08-22T17:06:09.113Z,6.78
2018-08-22T17:08:38.376Z,7.35
2018-08-22T17:11:08.176Z,6.28
2018-08-22T17:13:43.164Z,6.97
2018-08-22T17:16:11.997Z,7.53
2018-08-22T17:18:41.133Z,7.60
2018-08-22T17:21:10.970Z,7.67
2018-08-22T17:23:40.353Z,7.65
2018-08-22T17:26:14.087Z,7.92
2018-08-22T17:28:45.489Z,9.08
2018-08-22T17:31:15.125Z,9.50
2018-08-22T17:33:48.399Z,9.73
2018-08-22T17:36:17.826Z,10.58
2018-08-22T17:38:48.025Z,10.28
2018-08-22T17:41:18.695Z,8.25
2018-08-22T17:43:59.598Z,8.33
2018-08-22T17:46:31.005Z,6.92
2018-08-22T17:48:59.945Z,7.65
2018-08-22T17:51:29.146Z,7.55
2018-08-22T17:53:58.108Z,8.00
2018-08-22T17:56:27.678Z,7.90
2018-08-22T17:58:57.480Z,7.37
2018-08-22T18:01:26.647Z,8.05
2018-08-22T18:03:56.832Z,7.47
2018-08-22T18:06:26.353Z,7.50
2018-08-22T18:08:55.702Z,6.70
2018-08-22T18:11:26.285Z,7.35
2018-08-22T18:13:58.586Z,7.25
2018-08-22T18:16:27.555Z,7.10
2018-08-22T18:18:56.669Z,6.83
2018-08-22T18:21:33.828Z,6.15
2018-08-22T18:24:03.502Z,6.67
2018-08-22T18:26:32.864Z,6.90
2018-08-22T18:29:02.603Z,7.17
2018-08-22T18:31:31.527Z,6.53
2018-08-22T18:34:02.974Z,6.97
2018-08-22T18:36:32.849Z,7.03
2018-08-22T18:39:13.292Z,6.83
2018-08-22T18:41:42.158Z,7.50
2018-08-22T18:44:11.181Z,7.55
2018-08-22T18:46:40.209Z,7.22
2018-08-22T18:49:09.082Z,7.62
2018-08-22T18:51:38.091Z,7.05
2018-08-22T18:54:07.207Z,7.37
2018-08-22T18:56:36.121Z,8.65
2018-08-22T18:59:15.827Z,6.90
2018-08-22T19:01:44.868Z,5.92
2018-08-22T19:04:13.735Z,6.10
2018-08-22T19:06:42.730Z,5.25
2018-08-22T19:09:11.693Z,6.60
2018-08-22T19:11:40.793Z,5.35
2018-08-22T19:14:10.217Z,5.67
2018-08-22T19:16:39.905Z,5.28
2018-08-22T19:19:08.839Z,5.70
2018-08-22T19:21:37.757Z,5.35
2018-08-22T19:24:07.457Z,5.60
2018-08-22T19:26:36.251Z,5.60
2018-08-22T19:29:07.024Z,5.40
2018-08-22T19:31:38.240Z,4.65
2018-08-22T19:34:07.356Z,5.53
2018-08-22T19:36:36.321Z,5.50
2018-08-22T19:39:06.652Z,5.47
2018-08-22T19:41:35.516Z,4.90
2018-08-22T19:44:05.049Z,5.00
2018-08-22T19:46:34.471Z,4.08
2018-08-22T19:49:03.364Z,5.80
2018-08-22T19:51:32.319Z,4.70
2018-08-22T19:54:04.592Z,4.42
2018-08-22T19:56:33.752Z,4.25
2018-08-22T19:59:03.291Z,4.20
2018-08-22T20:01:34.169Z,4.28
2018-08-22T20:04:03.195Z,4.20
2018-08-22T20:06:32.561Z,4.83
2018-08-22T20:09:02.113Z,4.25
2018-08-22T20:11:34.141Z,3.40
2018-08-22T20:14:04.811Z,3.50
2018-08-22T20:16:33.716Z,3.25
2018-08-22T20:19:03.967Z,3.08
2018-08-22T20:21:40.493Z,4.22
2018-08-22T20:24:11.139Z,4.00
2018-08-22T20:26:49.008Z,3.60
2018-08-22T20:29:18.166Z,3.65
2018-08-22T20:31:47.186Z,3.55
2018-08-22T20:34:17.200Z,3.70
2018-08-22T20:36:48.948Z,3.55
2018-08-22T20:39:17.988Z,3.58
2018-08-22T20:41:47.117Z,3.25
2018-08-22T20:44:18.214Z,3.33
2018-08-22T20:46:48.202Z,3.22
2018-08-22T20:49:19.278Z,3.50
2018-08-22T20:51:48.639Z,3.52
2018-08-22T20:54:21.539Z,4.47
2018-08-22T20:56:56.754Z,3.65
2018-08-22T20:59:25.827Z,3.98
2018-08-22T21:02:00.026Z,4.90
2018-08-22T21:04:29.069Z,3.75
2018-08-22T21:06:58.077Z,4.15
2018-08-22T21:09:27.227Z,4.20
2018-08-22T21:11:58.239Z,4.90
2018-08-22T21:14:28.652Z,4.67
2018-08-22T21:16:57.557Z,5.83
2018-08-22T21:19:26.547Z,4.62
2018-08-22T21:21:55.489Z,5.62
2018-08-22T21:24:25.253Z,4.92
2018-08-22T21:26:54.146Z,4.62
2018-08-22T21:29:23.063Z,4.47
2018-08-22T21:31:52.059Z,4.27
2018-08-22T21:34:21.091Z,4.03
2018-08-22T21:36:50.061Z,4.28
2018-08-22T21:39:24.789Z,4.58
2018-08-22T21:41:54.462Z,4.12
2018-08-22T21:44:24.190Z,4.42
2018-08-22T21:47:00.424Z,3.87
2018-08-22T21:49:29.805Z,4.58
2018-08-22T21:52:01.679Z,4.65
2018-08-22T21:54:30.682Z,4.23
2018-08-22T21:56:59.658Z,4.17
2018-08-22T21:59:28.655Z,5.30
2018-08-22T22:02:02.845Z,4.90
2018-08-22T22:04:34.766Z,4.87
2018-08-22T22:07:04.950Z,4.77
2018-08-22T22:09:34.522Z,5.93
2018-08-22T22:12:04.049Z,5.85
2018-08-22T22:14:36.715Z,5.90
2018-08-22T22:17:06.381Z,5.70
2018-08-22T22:19:36.289Z,5.30
2018-08-22T22:22:05.952Z,5.07
2018-08-22T22:24:41.403Z,4.95
2018-08-22T22:27:10.903Z,4.63
2018-08-22T22:29:39.795Z,4.63
2018-08-22T22:32:12.630Z,4.23
2018-08-22T22:34:41.773Z,4.77
2018-08-22T22:37:17.387Z,4.60
2018-08-22T22:39:46.990Z,4.50
2018-08-22T22:42:28.162Z,4.03
2018-08-22T22:44:58.440Z,4.33
2018-08-22T22:47:31.564Z,4.80
2018-08-22T22:50:01.200Z,4.63
2018-08-22T22:52:40.084Z,4.33
2018-08-22T22:55:10.012Z,4.47
2018-08-22T22:57:40.303Z,4.37
2018-08-22T23:00:13.245Z,4.60
2018-08-22T23:02:42.393Z,5.07
2018-08-22T23:05:11.433Z,4.20
2018-08-22T23:07:41.333Z,4.53
2018-08-22T23:10:12.751Z,5.30
2018-08-22T23:12:45.674Z,4.50
2018-08-22T23:15:17.429Z,4.27
2018-08-22T23:17:47.906Z,4.10
2018-08-22T23:20:27.804Z,3.47
2018-08-22T23:22:57.808Z,3.73
2018-08-22T23:25:27.079Z,4.20
2018-08-22T23:27:56.114Z,4.50
2018-08-22T23:30:30.073Z,4.30
2018-08-22T23:32:59.095Z,4.20
2018-08-22T23:35:33.528Z,3.97
2018-08-22T23:38:07.696Z,4.43
2018-08-22T23:40:37.967Z,4.23
2018-08-22T23:43:06.870Z,4.53
2018-08-22T23:45:37.639Z,3.97
2018-08-22T23:48:06.988Z,4.50
2018-08-22T23:50:45.577Z,3.77
2018-08-22T23:53:14.497Z,4.27
2018-08-22T23:55:43.328Z,4.60
2018-08-22T23:58:12.629Z,4.47
